sensor_id;sensor_type;location;lat;lon;timestamp;P1;durP1;ratioP1;P2;durP2;ratioP2
69386;SDS011;56575;48.942;8.404;2023-06-14T00:02:19;7.32;;;3.50;;
69386;SDS011;56575;48.942;8.404;2023-06-14T00:04:44;5.40;;;3.43;;
69386;SDS011;56575;48.942;8.404;2023-06-14T00:07:10;6.38;;;3.80;;
69386;SDS011;56575;48.942;8.404;2023-06-14T00:09:38;5.87;;;3.70;;
69386;SDS011;56575;48.942;8.404;2023-06-14T00:12:04;8.32;;;3.67;;
69386;SDS011;56575;48.942;8.404;2023-06-14T00:14:31;5.75;;;3.67;;
69386;SDS011;56575;48.942;8.404;2023-06-14T00:16:56;6.80;;;3.60;;
69386;SDS011;56575;48.942;8.404;2023-06-14T00:19:24;7.90;;;3.60;;
69386;SDS011;56575;48.942;8.404;2023-06-14T00:21:50;5.83;;;3.90;;
69386;SDS011;56575;48.942;8.404;2023-06-14T00:24:17;5.15;;;3.67;;
69386;SDS011;56575;48.942;8.404;2023-06-14T00:26:42;5.37;;;3.60;;
69386;SDS011;56575;48.942;8.404;2023-06-14T00:29:07;5.17;;;3.73;;
69386;SDS011;56575;48.942;8.404;2023-06-14T00:31:33;5.20;;;3.50;;
69386;SDS011;56575;48.942;8.404;2023-06-14T00:33:58;4.90;;;3.80;;
69386;SDS011;56575;48.942;8.404;2023-06-14T00:36:23;4.70;;;3.40;;
69386;SDS011;56575;48.942;8.404;2023-06-14T00:38:49;5.43;;;3.35;;
69386;SDS011;56575;48.942;8.404;2023-06-14T00:41:14;6.53;;;3.93;;
69386;SDS011;56575;48.942;8.404;2023-06-14T00:43:40;5.70;;;3.50;;
69386;SDS011;56575;48.942;8.404;2023-06-14T00:46:05;7.40;;;3.80;;
69386;SDS011;56575;48.942;8.404;2023-06-14T00:48:30;5.20;;;3.53;;
69386;SDS011;56575;48.942;8.404;2023-06-14T00:50:56;5.60;;;3.60;;
69386;SDS011;56575;48.942;8.404;2023-06-14T00:53:23;6.07;;;3.67;;
69386;SDS011;56575;48.942;8.404;2023-06-14T00:55:50;5.95;;;3.70;;
69386;SDS011;56575;48.942;8.404;2023-06-14T00:58:15;7.77;;;3.63;;
69386;SDS011;56575;48.942;8.404;2023-06-14T01:00:41;5.10;;;3.60;;
69386;SDS011;56575;48.942;8.404;2023-06-14T01:03:07;7.67;;;3.60;;
69386;SDS011;56575;48.942;8.404;2023-06-14T01:05:32;10.02;;;3.40;;
69386;SDS011;56575;48.942;8.404;2023-06-14T01:11:07;6.72;;;3.70;;
69386;SDS011;56575;48.942;8.404;2023-06-14T01:13:45;5.47;;;3.70;;
69386;SDS011;56575;48.942;8.404;2023-06-14T01:16:11;5.47;;;3.47;;
69386;SDS011;56575;48.942;8.404;2023-06-14T01:18:37;7.43;;;3.90;;
69386;SDS011;56575;48.942;8.404;2023-06-14T01:21:03;6.87;;;4.33;;
69386;SDS011;56575;48.942;8.404;2023-06-14T01:23:31;8.77;;;3.95;;
69386;SDS011;56575;48.942;8.404;2023-06-14T01:26:00;6.88;;;3.53;;
69386;SDS011;56575;48.942;8.404;2023-06-14T01:28:28;5.07;;;3.35;;
69386;SDS011;56575;48.942;8.404;2023-06-14T01:30:59;7.20;;;3.80;;
69386;SDS011;56575;48.942;8.404;2023-06-14T01:33:29;10.10;;;3.47;;
69386;SDS011;56575;48.942;8.404;2023-06-14T01:35:55;5.35;;;3.25;;
69386;SDS011;56575;48.942;8.404;2023-06-14T01:38:22;6.53;;;3.85;;
69386;SDS011;56575;48.942;8.404;2023-06-14T01:40:49;5.47;;;3.40;;
69386;SDS011;56575;48.942;8.404;2023-06-14T01:43:16;5.43;;;3.40;;
69386;SDS011;56575;48.942;8.404;2023-06-14T01:45:44;7.85;;;3.85;;
69386;SDS011;56575;48.942;8.404;2023-06-14T01:48:12;7.47;;;3.83;;
69386;SDS011;56575;48.942;8.404;2023-06-14T01:50:37;8.90;;;3.83;;
69386;SDS011;56575;48.942;8.404;2023-06-14T01:53:03;6.03;;;3.58;;
69386;SDS011;56575;48.942;8.404;2023-06-14T01:55:32;6.10;;;3.60;;
69386;SDS011;56575;48.942;8.404;2023-06-14T01:58:02;5.15;;;3.67;;
69386;SDS011;56575;48.942;8.404;2023-06-14T02:00:27;12.70;;;4.32;;
69386;SDS011;56575;48.942;8.404;2023-06-14T02:02:53;5.23;;;3.63;;
69386;SDS011;56575;48.942;8.404;2023-06-14T02:05:18;6.60;;;4.03;;
69386;SDS011;56575;48.942;8.404;2023-06-14T02:07:44;9.23;;;3.90;;
69386;SDS011;56575;48.942;8.404;2023-06-14T02:10:09;5.43;;;3.75;;
69386;SDS011;56575;48.942;8.404;2023-06-14T02:12:34;8.47;;;3.90;;
69386;SDS011;56575;48.942;8.404;2023-06-14T02:15:00;8.93;;;3.87;;
69386;SDS011;56575;48.942;8.404;2023-06-14T02:17:25;5.60;;;3.60;;
69386;SDS011;56575;48.942;8.404;2023-06-14T02:19:51;9.45;;;3.83;;
69386;SDS011;56575;48.942;8.404;2023-06-14T02:22:16;6.60;;;3.87;;
69386;SDS011;56575;48.942;8.404;2023-06-14T02:24:42;6.07;;;3.50;;
69386;SDS011;56575;48.942;8.404;2023-06-14T02:27:08;5.93;;;3.88;;
69386;SDS011;56575;48.942;8.404;2023-06-14T02:29:35;6.43;;;4.03;;
69386;SDS011;56575;48.942;8.404;2023-06-14T02:32:01;7.80;;;4.28;;
69386;SDS011;56575;48.942;8.404;2023-06-14T02:34:26;6.63;;;3.80;;
69386;SDS011;56575;48.942;8.404;2023-06-14T02:36:52;5.93;;;3.67;;
69386;SDS011;56575;48.942;8.404;2023-06-14T02:39:17;6.60;;;3.75;;
69386;SDS011;56575;48.942;8.404;2023-06-14T02:41:45;7.00;;;3.67;;
69386;SDS011;56575;48.942;8.404;2023-06-14T02:44:12;6.03;;;3.77;;
69386;SDS011;56575;48.942;8.404;2023-06-14T02:46:38;8.80;;;3.70;;
69386;SDS011;56575;48.942;8.404;2023-06-14T02:49:04;6.43;;;3.85;;
69386;SDS011;56575;48.942;8.404;2023-06-14T02:51:30;6.83;;;4.00;;
69386;SDS011;56575;48.942;8.404;2023-06-14T02:53:55;7.70;;;4.17;;
69386;SDS011;56575;48.942;8.404;2023-06-14T02:56:20;7.28;;;3.65;;
69386;SDS011;56575;48.942;8.404;2023-06-14T02:58:47;7.70;;;4.17;;
69386;SDS011;56575;48.942;8.404;2023-06-14T03:01:13;7.07;;;3.85;;
69386;SDS011;56575;48.942;8.404;2023-06-14T03:03:39;7.20;;;3.88;;
69386;SDS011;56575;48.942;8.404;2023-06-14T03:06:05;7.40;;;3.90;;
69386;SDS011;56575;48.942;8.404;2023-06-14T03:08:30;6.75;;;3.97;;
69386;SDS011;56575;48.942;8.404;2023-06-14T03:10:58;7.67;;;4.10;;
69386;SDS011;56575;48.942;8.404;2023-06-14T03:13:23;5.78;;;3.97;;
69386;SDS011;56575;48.942;8.404;2023-06-14T03:15:49;5.63;;;3.80;;
69386;SDS011;56575;48.942;8.404;2023-06-14T03:18:17;5.88;;;3.50;;
69386;SDS011;56575;48.942;8.404;2023-06-14T03:20:42;7.87;;;3.83;;
69386;SDS011;56575;48.942;8.404;2023-06-14T03:23:10;7.68;;;3.70;;
69386;SDS011;56575;48.942;8.404;2023-06-14T03:25:36;5.67;;;3.60;;
69386;SDS011;56575;48.942;8.404;2023-06-14T03:28:03;6.03;;;3.55;;
69386;SDS011;56575;48.942;8.404;2023-06-14T03:30:30;6.40;;;3.80;;
69386;SDS011;56575;48.942;8.404;2023-06-14T03:32:57;6.82;;;3.60;;
69386;SDS011;56575;48.942;8.404;2023-06-14T03:35:23;5.72;;;3.72;;
69386;SDS011;56575;48.942;8.404;2023-06-14T03:37:49;6.90;;;4.03;;
69386;SDS011;56575;48.942;8.404;2023-06-14T03:40:15;7.93;;;4.10;;
69386;SDS011;56575;48.942;8.404;2023-06-14T03:42:43;7.45;;;4.05;;
69386;SDS011;56575;48.942;8.404;2023-06-14T03:45:09;6.38;;;3.92;;
69386;SDS011;56575;48.942;8.404;2023-06-14T03:47:34;5.80;;;3.37;;
69386;SDS011;56575;48.942;8.404;2023-06-14T03:50:01;6.40;;;3.60;;
69386;SDS011;56575;48.942;8.404;2023-06-14T03:52:27;7.05;;;3.95;;
69386;SDS011;56575;48.942;8.404;2023-06-14T03:54:52;7.30;;;3.57;;
69386;SDS011;56575;48.942;8.404;2023-06-14T03:57:18;8.60;;;3.93;;
69386;SDS011;56575;48.942;8.404;2023-06-14T03:59:44;7.28;;;4.00;;
69386;SDS011;56575;48.942;8.404;2023-06-14T04:02:09;7.57;;;4.00;;
69386;SDS011;56575;48.942;8.404;2023-06-14T04:04:35;5.82;;;3.65;;
69386;SDS011;56575;48.942;8.404;2023-06-14T04:07:01;5.20;;;3.60;;
69386;SDS011;56575;48.942;8.404;2023-06-14T04:09:28;6.32;;;3.67;;
69386;SDS011;56575;48.942;8.404;2023-06-14T04:11:55;6.50;;;3.77;;
69386;SDS011;56575;48.942;8.404;2023-06-14T04:14:21;9.35;;;3.53;;
69386;SDS011;56575;48.942;8.404;2023-06-14T04:16:47;7.57;;;4.05;;
69386;SDS011;56575;48.942;8.404;2023-06-14T04:19:13;6.60;;;4.00;;
69386;SDS011;56575;48.942;8.404;2023-06-14T04:21:39;6.32;;;3.72;;
69386;SDS011;56575;48.942;8.404;2023-06-14T04:24:04;6.33;;;3.93;;
69386;SDS011;56575;48.942;8.404;2023-06-14T04:26:30;5.57;;;3.80;;
69386;SDS011;56575;48.942;8.404;2023-06-14T04:28:58;7.35;;;4.28;;
69386;SDS011;56575;48.942;8.404;2023-06-14T04:31:28;5.25;;;3.83;;
69386;SDS011;56575;48.942;8.404;2023-06-14T04:33:55;6.50;;;3.97;;
69386;SDS011;56575;48.942;8.404;2023-06-14T04:36:21;6.20;;;3.80;;
69386;SDS011;56575;48.942;8.404;2023-06-14T04:38:47;6.95;;;3.60;;
69386;SDS011;56575;48.942;8.404;2023-06-14T04:41:14;6.53;;;4.10;;
69386;SDS011;56575;48.942;8.404;2023-06-14T04:43:40;5.72;;;4.13;;
69386;SDS011;56575;48.942;8.404;2023-06-14T04:46:07;7.22;;;4.07;;
69386;SDS011;56575;48.942;8.404;2023-06-14T04:48:36;7.00;;;4.20;;
69386;SDS011;56575;48.942;8.404;2023-06-14T04:51:02;11.48;;;4.22;;
69386;SDS011;56575;48.942;8.404;2023-06-14T04:53:29;6.40;;;4.40;;
69386;SDS011;56575;48.942;8.404;2023-06-14T04:55:54;5.57;;;4.13;;
69386;SDS011;56575;48.942;8.404;2023-06-14T04:58:19;6.35;;;3.95;;
69386;SDS011;56575;48.942;8.404;2023-06-14T05:00:45;6.87;;;4.10;;
69386;SDS011;56575;48.942;8.404;2023-06-14T05:03:10;9.20;;;4.20;;
69386;SDS011;56575;48.942;8.404;2023-06-14T05:05:38;6.85;;;4.28;;
69386;SDS011;56575;48.942;8.404;2023-06-14T05:08:07;7.38;;;4.05;;
69386;SDS011;56575;48.942;8.404;2023-06-14T05:10:33;9.20;;;4.30;;
69386;SDS011;56575;48.942;8.404;2023-06-14T05:13:00;8.70;;;4.27;;
69386;SDS011;56575;48.942;8.404;2023-06-14T05:15:26;7.57;;;4.18;;
69386;SDS011;56575;48.942;8.404;2023-06-14T05:17:52;5.60;;;4.10;;
69386;SDS011;56575;48.942;8.404;2023-06-14T05:20:20;7.22;;;4.22;;
69386;SDS011;56575;48.942;8.404;2023-06-14T05:22:48;7.25;;;4.53;;
69386;SDS011;56575;48.942;8.404;2023-06-14T05:25:15;5.93;;;3.90;;
69386;SDS011;56575;48.942;8.404;2023-06-14T05:27:40;8.47;;;4.33;;
69386;SDS011;56575;48.942;8.404;2023-06-14T05:30:07;8.32;;;4.43;;
69386;SDS011;56575;48.942;8.404;2023-06-14T05:32:33;6.32;;;4.50;;
69386;SDS011;56575;48.942;8.404;2023-06-14T05:34:59;7.83;;;4.70;;
69386;SDS011;56575;48.942;8.404;2023-06-14T05:37:24;7.47;;;5.20;;
69386;SDS011;56575;48.942;8.404;2023-06-14T05:39:50;7.00;;;4.67;;
69386;SDS011;56575;48.942;8.404;2023-06-14T05:42:15;7.63;;;4.30;;
69386;SDS011;56575;48.942;8.404;2023-06-14T05:44:40;8.00;;;5.40;;
69386;SDS011;56575;48.942;8.404;2023-06-14T05:47:06;10.30;;;4.63;;
69386;SDS011;56575;48.942;8.404;2023-06-14T05:49:31;7.23;;;4.70;;
69386;SDS011;56575;48.942;8.404;2023-06-14T05:51:56;7.00;;;4.37;;
69386;SDS011;56575;48.942;8.404;2023-06-14T05:54:22;6.97;;;4.73;;
69386;SDS011;56575;48.942;8.404;2023-06-14T05:56:47;7.87;;;4.57;;
69386;SDS011;56575;48.942;8.404;2023-06-14T05:59:13;7.03;;;4.80;;
69386;SDS011;56575;48.942;8.404;2023-06-14T06:01:38;8.07;;;4.57;;
69386;SDS011;56575;48.942;8.404;2023-06-14T06:04:05;9.95;;;4.82;;
69386;SDS011;56575;48.942;8.404;2023-06-14T06:06:31;11.90;;;5.13;;
69386;SDS011;56575;48.942;8.404;2023-06-14T06:08:57;6.97;;;4.70;;
69386;SDS011;56575;48.942;8.404;2023-06-14T06:11:23;8.00;;;5.32;;
69386;SDS011;56575;48.942;8.404;2023-06-14T06:13:48;5.63;;;4.57;;
69386;SDS011;56575;48.942;8.404;2023-06-14T06:16:14;8.20;;;5.13;;
69386;SDS011;56575;48.942;8.404;2023-06-14T06:18:40;7.90;;;5.00;;
69386;SDS011;56575;48.942;8.404;2023-06-14T06:21:05;7.95;;;4.78;;
69386;SDS011;56575;48.942;8.404;2023-06-14T06:23:31;8.67;;;5.30;;
69386;SDS011;56575;48.942;8.404;2023-06-14T06:25:56;7.50;;;4.57;;
69386;SDS011;56575;48.942;8.404;2023-06-14T06:28:22;7.35;;;4.88;;
69386;SDS011;56575;48.942;8.404;2023-06-14T06:30:47;7.80;;;4.70;;
69386;SDS011;56575;48.942;8.404;2023-06-14T06:33:12;6.87;;;5.00;;
69386;SDS011;56575;48.942;8.404;2023-06-14T06:35:39;6.82;;;5.00;;
69386;SDS011;56575;48.942;8.404;2023-06-14T06:38:04;9.47;;;5.40;;
69386;SDS011;56575;48.942;8.404;2023-06-14T06:40:30;7.35;;;5.13;;
69386;SDS011;56575;48.942;8.404;2023-06-14T06:42:55;6.60;;;4.90;;
69386;SDS011;56575;48.942;8.404;2023-06-14T06:45:21;7.33;;;4.97;;
69386;SDS011;56575;48.942;8.404;2023-06-14T06:47:48;7.68;;;4.90;;
69386;SDS011;56575;48.942;8.404;2023-06-14T06:50:13;7.18;;;4.97;;
69386;SDS011;56575;48.942;8.404;2023-06-14T06:52:39;8.20;;;5.50;;
69386;SDS011;56575;48.942;8.404;2023-06-14T06:55:05;7.07;;;4.70;;
69386;SDS011;56575;48.942;8.404;2023-06-14T06:57:30;7.40;;;5.00;;
69386;SDS011;56575;48.942;8.404;2023-06-14T06:59:56;13.03;;;5.43;;
69386;SDS011;56575;48.942;8.404;2023-06-14T07:02:22;7.05;;;4.97;;
69386;SDS011;56575;48.942;8.404;2023-06-14T07:04:47;6.20;;;5.00;;
69386;SDS011;56575;48.942;8.404;2023-06-14T07:07:13;8.68;;;5.22;;
69386;SDS011;56575;48.942;8.404;2023-06-14T07:09:38;7.00;;;5.23;;
69386;SDS011;56575;48.942;8.404;2023-06-14T07:12:04;7.40;;;5.30;;
69386;SDS011;56575;48.942;8.404;2023-06-14T07:14:29;10.35;;;4.93;;
69386;SDS011;56575;48.942;8.404;2023-06-14T07:16:55;6.73;;;5.10;;
69386;SDS011;56575;48.942;8.404;2023-06-14T07:19:20;6.90;;;4.90;;
69386;SDS011;56575;48.942;8.404;2023-06-14T07:21:46;9.55;;;4.95;;
69386;SDS011;56575;48.942;8.404;2023-06-14T07:24:11;7.20;;;5.13;;
69386;SDS011;56575;48.942;8.404;2023-06-14T07:26:37;6.23;;;4.80;;
69386;SDS011;56575;48.942;8.404;2023-06-14T07:29:02;7.00;;;4.87;;
69386;SDS011;56575;48.942;8.404;2023-06-14T07:31:27;9.77;;;5.22;;
69386;SDS011;56575;48.942;8.404;2023-06-14T07:33:53;8.93;;;4.80;;
69386;SDS011;56575;48.942;8.404;2023-06-14T07:36:18;6.33;;;4.93;;
69386;SDS011;56575;48.942;8.404;2023-06-14T07:38:44;8.23;;;5.23;;
69386;SDS011;56575;48.942;8.404;2023-06-14T07:41:10;7.65;;;4.95;;
69386;SDS011;56575;48.942;8.404;2023-06-14T07:43:35;7.10;;;4.80;;
69386;SDS011;56575;48.942;8.404;2023-06-14T07:46:00;6.22;;;5.20;;
69386;SDS011;56575;48.942;8.404;2023-06-14T07:48:27;8.63;;;4.90;;
69386;SDS011;56575;48.942;8.404;2023-06-14T07:50:52;8.73;;;5.15;;
69386;SDS011;56575;48.942;8.404;2023-06-14T07:53:17;8.00;;;4.80;;
69386;SDS011;56575;48.942;8.404;2023-06-14T07:55:43;8.03;;;5.20;;
69386;SDS011;56575;48.942;8.404;2023-06-14T07:58:08;9.20;;;5.23;;
69386;SDS011;56575;48.942;8.404;2023-06-14T08:00:34;6.93;;;5.00;;
69386;SDS011;56575;48.942;8.404;2023-06-14T08:03:00;7.80;;;4.97;;
69386;SDS011;56575;48.942;8.404;2023-06-14T08:05:25;6.53;;;5.35;;
69386;SDS011;56575;48.942;8.404;2023-06-14T08:07:52;6.63;;;4.70;;
69386;SDS011;56575;48.942;8.404;2023-06-14T08:10:18;8.70;;;4.90;;
69386;SDS011;56575;48.942;8.404;2023-06-14T08:12:43;7.18;;;5.10;;
69386;SDS011;56575;48.942;8.404;2023-06-14T08:15:09;6.10;;;5.00;;
69386;SDS011;56575;48.942;8.404;2023-06-14T08:17:35;8.90;;;5.15;;
69386;SDS011;56575;48.942;8.404;2023-06-14T08:20:01;7.55;;;4.70;;
69386;SDS011;56575;48.942;8.404;2023-06-14T08:22:26;7.23;;;4.93;;
69386;SDS011;56575;48.942;8.404;2023-06-14T08:24:53;11.70;;;4.77;;
69386;SDS011;56575;48.942;8.404;2023-06-14T08:27:19;8.65;;;4.97;;
69386;SDS011;56575;48.942;8.404;2023-06-14T08:29:45;8.55;;;4.50;;
69386;SDS011;56575;48.942;8.404;2023-06-14T08:32:11;8.30;;;4.80;;
69386;SDS011;56575;48.942;8.404;2023-06-14T08:34:36;5.93;;;4.43;;
69386;SDS011;56575;48.942;8.404;2023-06-14T08:37:02;5.88;;;4.60;;
69386;SDS011;56575;48.942;8.404;2023-06-14T08:39:27;6.20;;;4.37;;
69386;SDS011;56575;48.942;8.404;2023-06-14T08:41:53;7.27;;;4.77;;
69386;SDS011;56575;48.942;8.404;2023-06-14T08:44:19;4.97;;;4.18;;
69386;SDS011;56575;48.942;8.404;2023-06-14T08:46:45;6.63;;;4.55;;
69386;SDS011;56575;48.942;8.404;2023-06-14T08:49:13;12.67;;;4.33;;
69386;SDS011;56575;48.942;8.404;2023-06-14T08:51:41;10.23;;;4.68;;
69386;SDS011;56575;48.942;8.404;2023-06-14T08:54:08;7.68;;;4.35;;
69386;SDS011;56575;48.942;8.404;2023-06-14T08:56:35;7.78;;;4.47;;
69386;SDS011;56575;48.942;8.404;2023-06-14T08:59:03;7.53;;;4.45;;
69386;SDS011;56575;48.942;8.404;2023-06-14T09:01:32;8.90;;;4.40;;
69386;SDS011;56575;48.942;8.404;2023-06-14T09:03:59;7.53;;;5.07;;
69386;SDS011;56575;48.942;8.404;2023-06-14T09:06:25;6.70;;;4.68;;
69386;SDS011;56575;48.942;8.404;2023-06-14T09:08:54;8.70;;;4.40;;
69386;SDS011;56575;48.942;8.404;2023-06-14T09:11:23;6.30;;;4.38;;
69386;SDS011;56575;48.942;8.404;2023-06-14T09:13:51;6.50;;;4.30;;
69386;SDS011;56575;48.942;8.404;2023-06-14T09:16:16;7.22;;;4.03;;
69386;SDS011;56575;48.942;8.404;2023-06-14T09:18:45;7.83;;;4.40;;
69386;SDS011;56575;48.942;8.404;2023-06-14T09:21:15;7.47;;;4.60;;
69386;SDS011;56575;48.942;8.404;2023-06-14T09:23:43;5.93;;;4.47;;
69386;SDS011;56575;48.942;8.404;2023-06-14T09:26:10;6.83;;;4.50;;
69386;SDS011;56575;48.942;8.404;2023-06-14T09:28:41;6.30;;;4.45;;
69386;SDS011;56575;48.942;8.404;2023-06-14T09:31:08;6.55;;;4.28;;
69386;SDS011;56575;48.942;8.404;2023-06-14T09:33:34;6.22;;;4.25;;
69386;SDS011;56575;48.942;8.404;2023-06-14T09:36:00;5.83;;;4.10;;
69386;SDS011;56575;48.942;8.404;2023-06-14T09:38:25;7.65;;;4.00;;
69386;SDS011;56575;48.942;8.404;2023-06-14T09:40:51;7.43;;;3.57;;
69386;SDS011;56575;48.942;8.404;2023-06-14T09:43:17;8.75;;;4.22;;
69386;SDS011;56575;48.942;8.404;2023-06-14T09:45:43;7.53;;;4.20;;
69386;SDS011;56575;48.942;8.404;2023-06-14T09:48:11;7.88;;;4.25;;
69386;SDS011;56575;48.942;8.404;2023-06-14T09:50:42;8.15;;;4.20;;
69386;SDS011;56575;48.942;8.404;2023-06-14T09:53:10;5.57;;;3.70;;
69386;SDS011;56575;48.942;8.404;2023-06-14T09:55:37;6.03;;;4.00;;
69386;SDS011;56575;48.942;8.404;2023-06-14T09:58:05;7.60;;;3.97;;
69386;SDS011;56575;48.942;8.404;2023-06-14T10:00:32;8.25;;;4.28;;
69386;SDS011;56575;48.942;8.404;2023-06-14T10:03:00;6.63;;;4.20;;
69386;SDS011;56575;48.942;8.404;2023-06-14T10:05:33;6.38;;;4.30;;
69386;SDS011;56575;48.942;8.404;2023-06-14T10:08:04;5.55;;;4.18;;
69386;SDS011;56575;48.942;8.404;2023-06-14T10:10:34;6.27;;;3.80;;
69386;SDS011;56575;48.942;8.404;2023-06-14T10:12:59;9.20;;;4.10;;
69386;SDS011;56575;48.942;8.404;2023-06-14T10:20:50;7.80;;;4.18;;
69386;SDS011;56575;48.942;8.404;2023-06-14T10:23:29;7.13;;;4.03;;
69386;SDS011;56575;48.942;8.404;2023-06-14T10:25:57;5.22;;;3.67;;
69386;SDS011;56575;48.942;8.404;2023-06-14T10:28:22;4.70;;;3.75;;
69386;SDS011;56575;48.942;8.404;2023-06-14T10:31:08;5.83;;;3.60;;
69386;SDS011;56575;48.942;8.404;2023-06-14T10:33:36;6.43;;;3.90;;
69386;SDS011;56575;48.942;8.404;2023-06-14T10:36:08;5.93;;;3.97;;
69386;SDS011;56575;48.942;8.404;2023-06-14T10:39:06;7.03;;;3.80;;
69386;SDS011;56575;48.942;8.404;2023-06-14T10:41:39;9.50;;;4.07;;
69386;SDS011;56575;48.942;8.404;2023-06-14T10:46:49;6.57;;;3.90;;
69386;SDS011;56575;48.942;8.404;2023-06-14T10:49:17;10.15;;;4.25;;
69386;SDS011;56575;48.942;8.404;2023-06-14T10:51:44;4.05;;;3.63;;
69386;SDS011;56575;48.942;8.404;2023-06-14T10:54:22;5.53;;;3.60;;
69386;SDS011;56575;48.942;8.404;2023-06-14T10:56:52;7.53;;;3.80;;
69386;SDS011;56575;48.942;8.404;2023-06-14T10:59:18;8.70;;;4.20;;
69386;SDS011;56575;48.942;8.404;2023-06-14T11:04:50;7.05;;;3.50;;
69386;SDS011;56575;48.942;8.404;2023-06-14T11:13:04;5.05;;;3.60;;
69386;SDS011;56575;48.942;8.404;2023-06-14T11:15:35;5.85;;;3.78;;
69386;SDS011;56575;48.942;8.404;2023-06-14T11:18:06;5.53;;;3.85;;
69386;SDS011;56575;48.942;8.404;2023-06-14T11:20:37;5.00;;;3.50;;
69386;SDS011;56575;48.942;8.404;2023-06-14T11:23:02;8.43;;;3.80;;
69386;SDS011;56575;48.942;8.404;2023-06-14T11:25:29;4.78;;;3.70;;
69386;SDS011;56575;48.942;8.404;2023-06-14T11:27:54;8.30;;;4.27;;
69386;SDS011;56575;48.942;8.404;2023-06-14T11:30:20;5.85;;;3.80;;
69386;SDS011;56575;48.942;8.404;2023-06-14T11:32:50;4.35;;;3.75;;
69386;SDS011;56575;48.942;8.404;2023-06-14T11:35:21;6.45;;;3.88;;
69386;SDS011;56575;48.942;8.404;2023-06-14T11:37:48;5.63;;;3.70;;
69386;SDS011;56575;48.942;8.404;2023-06-14T11:40:17;5.83;;;3.60;;
69386;SDS011;56575;48.942;8.404;2023-06-14T11:42:42;9.13;;;3.78;;
69386;SDS011;56575;48.942;8.404;2023-06-14T11:45:08;5.40;;;3.63;;
69386;SDS011;56575;48.942;8.404;2023-06-14T11:47:35;6.68;;;4.10;;
69386;SDS011;56575;48.942;8.404;2023-06-14T11:50:02;5.40;;;4.03;;
69386;SDS011;56575;48.942;8.404;2023-06-14T11:52:28;5.90;;;4.05;;
69386;SDS011;56575;48.942;8.404;2023-06-14T11:54:54;6.28;;;3.85;;
69386;SDS011;56575;48.942;8.404;2023-06-14T11:57:20;6.97;;;3.72;;
69386;SDS011;56575;48.942;8.404;2023-06-14T11:59:46;6.77;;;3.97;;
69386;SDS011;56575;48.942;8.404;2023-06-14T12:02:15;4.82;;;3.97;;
69386;SDS011;56575;48.942;8.404;2023-06-14T12:04:42;7.78;;;3.80;;
69386;SDS011;56575;48.942;8.404;2023-06-14T12:07:08;5.10;;;4.20;;
69386;SDS011;56575;48.942;8.404;2023-06-14T12:09:39;4.40;;;3.80;;
69386;SDS011;56575;48.942;8.404;2023-06-14T12:12:08;5.90;;;3.90;;
69386;SDS011;56575;48.942;8.404;2023-06-14T12:14:34;4.15;;;3.70;;
69386;SDS011;56575;48.942;8.404;2023-06-14T12:17:05;5.23;;;3.77;;
69386;SDS011;56575;48.942;8.404;2023-06-14T12:19:33;6.78;;;4.40;;
69386;SDS011;56575;48.942;8.404;2023-06-14T12:22:06;6.77;;;3.97;;
69386;SDS011;56575;48.942;8.404;2023-06-14T12:24:31;8.00;;;4.40;;
69386;SDS011;56575;48.942;8.404;2023-06-14T12:26:57;5.63;;;4.43;;
69386;SDS011;56575;48.942;8.404;2023-06-14T12:29:28;7.22;;;4.60;;
69386;SDS011;56575;48.942;8.404;2023-06-14T12:31:54;6.30;;;4.53;;
69386;SDS011;56575;48.942;8.404;2023-06-14T12:34:21;7.97;;;4.40;;
69386;SDS011;56575;48.942;8.404;2023-06-14T12:36:47;4.83;;;4.33;;
69386;SDS011;56575;48.942;8.404;2023-06-14T12:39:12;10.07;;;5.00;;
69386;SDS011;56575;48.942;8.404;2023-06-14T12:41:38;7.55;;;4.55;;
69386;SDS011;56575;48.942;8.404;2023-06-14T12:44:06;6.03;;;4.20;;
69386;SDS011;56575;48.942;8.404;2023-06-14T12:46:31;5.93;;;4.13;;
69386;SDS011;56575;48.942;8.404;2023-06-14T12:48:57;6.43;;;4.13;;
69386;SDS011;56575;48.942;8.404;2023-06-14T12:51:22;6.27;;;4.27;;
69386;SDS011;56575;48.942;8.404;2023-06-14T12:53:48;7.55;;;4.15;;
69386;SDS011;56575;48.942;8.404;2023-06-14T12:56:14;6.00;;;3.90;;
69386;SDS011;56575;48.942;8.404;2023-06-14T12:58:40;7.72;;;4.32;;
69386;SDS011;56575;48.942;8.404;2023-06-14T13:01:06;9.23;;;4.37;;
69386;SDS011;56575;48.942;8.404;2023-06-14T13:03:32;6.15;;;4.50;;
69386;SDS011;56575;48.942;8.404;2023-06-14T13:05:58;5.63;;;4.00;;
69386;SDS011;56575;48.942;8.404;2023-06-14T13:08:24;7.37;;;4.23;;
69386;SDS011;56575;48.942;8.404;2023-06-14T13:10:49;4.63;;;4.23;;
69386;SDS011;56575;48.942;8.404;2023-06-14T13:13:14;4.53;;;4.07;;
69386;SDS011;56575;48.942;8.404;2023-06-14T13:15:40;4.73;;;3.93;;
69386;SDS011;56575;48.942;8.404;2023-06-14T13:18:05;7.67;;;4.03;;
69386;SDS011;56575;48.942;8.404;2023-06-14T13:20:31;6.70;;;4.37;;
69386;SDS011;56575;48.942;8.404;2023-06-14T13:22:56;5.32;;;3.90;;
69386;SDS011;56575;48.942;8.404;2023-06-14T13:25:22;5.83;;;4.23;;
69386;SDS011;56575;48.942;8.404;2023-06-14T13:27:47;6.10;;;4.20;;
69386;SDS011;56575;48.942;8.404;2023-06-14T13:30:13;4.57;;;3.67;;
69386;SDS011;56575;48.942;8.404;2023-06-14T13:32:39;5.15;;;3.63;;
69386;SDS011;56575;48.942;8.404;2023-06-14T13:35:05;7.83;;;3.80;;
69386;SDS011;56575;48.942;8.404;2023-06-14T13:37:30;7.13;;;3.28;;
69386;SDS011;56575;48.942;8.404;2023-06-14T13:39:56;6.03;;;3.80;;
69386;SDS011;56575;48.942;8.404;2023-06-14T13:42:22;5.20;;;3.70;;
69386;SDS011;56575;48.942;8.404;2023-06-14T13:44:47;4.27;;;3.63;;
69386;SDS011;56575;48.942;8.404;2023-06-14T13:47:12;4.87;;;3.90;;
69386;SDS011;56575;48.942;8.404;2023-06-14T13:49:38;6.28;;;3.97;;
69386;SDS011;56575;48.942;8.404;2023-06-14T13:52:03;5.83;;;3.97;;
69386;SDS011;56575;48.942;8.404;2023-06-14T13:54:29;4.77;;;3.60;;
69386;SDS011;56575;48.942;8.404;2023-06-14T13:56:55;7.03;;;3.87;;
69386;SDS011;56575;48.942;8.404;2023-06-14T13:59:20;6.83;;;3.70;;
69386;SDS011;56575;48.942;8.404;2023-06-14T14:01:45;6.40;;;3.33;;
69386;SDS011;56575;48.942;8.404;2023-06-14T14:04:12;4.32;;;3.70;;
69386;SDS011;56575;48.942;8.404;2023-06-14T14:06:37;6.60;;;3.70;;
69386;SDS011;56575;48.942;8.404;2023-06-14T14:09:03;6.53;;;3.60;;
69386;SDS011;56575;48.942;8.404;2023-06-14T14:11:28;12.47;;;3.50;;
69386;SDS011;56575;48.942;8.404;2023-06-14T14:13:58;4.85;;;3.58;;
69386;SDS011;56575;48.942;8.404;2023-06-14T14:16:23;6.87;;;3.73;;
69386;SDS011;56575;48.942;8.404;2023-06-14T14:18:49;5.47;;;3.70;;
69386;SDS011;56575;48.942;8.404;2023-06-14T14:21:14;4.60;;;3.37;;
69386;SDS011;56575;48.942;8.404;2023-06-14T14:23:40;5.47;;;3.70;;
69386;SDS011;56575;48.942;8.404;2023-06-14T14:26:05;5.22;;;3.63;;
69386;SDS011;56575;48.942;8.404;2023-06-14T14:28:31;5.73;;;3.90;;
69386;SDS011;56575;48.942;8.404;2023-06-14T14:30:57;6.10;;;3.92;;
69386;SDS011;56575;48.942;8.404;2023-06-14T14:33:23;6.63;;;3.43;;
69386;SDS011;56575;48.942;8.404;2023-06-14T14:35:48;4.73;;;3.73;;
69386;SDS011;56575;48.942;8.404;2023-06-14T14:38:14;5.53;;;3.30;;
69386;SDS011;56575;48.942;8.404;2023-06-14T14:40:43;5.75;;;3.30;;
69386;SDS011;56575;48.942;8.404;2023-06-14T14:43:09;3.60;;;3.15;;
69386;SDS011;56575;48.942;8.404;2023-06-14T14:45:35;6.13;;;3.63;;
69386;SDS011;56575;48.942;8.404;2023-06-14T14:48:01;5.30;;;3.53;;
69386;SDS011;56575;48.942;8.404;2023-06-14T14:50:27;6.60;;;3.33;;
69386;SDS011;56575;48.942;8.404;2023-06-14T14:52:53;5.80;;;3.20;;
69386;SDS011;56575;48.942;8.404;2023-06-14T14:55:18;5.57;;;3.40;;
69386;SDS011;56575;48.942;8.404;2023-06-14T14:57:45;6.97;;;3.53;;
69386;SDS011;56575;48.942;8.404;2023-06-14T15:00:11;4.60;;;3.40;;
69386;SDS011;56575;48.942;8.404;2023-06-14T15:02:36;5.37;;;3.30;;
69386;SDS011;56575;48.942;8.404;2023-06-14T15:05:02;5.85;;;3.65;;